sensor_id;sensor_type;location;lat;lon;timestamp;pressure;altitude;pressure_sealevel;temperature;humidity
21779;BME280;11050;52.222;20.916;2023-07-13T00:00:37;99702.66;;;19.86;100.00
21779;BME280;11050;52.222;20.916;2023-07-13T00:03:04;99698.53;;;19.83;100.00
21779;BME280;11050;52.222;20.916;2023-07-13T00:05:30;99699.03;;;19.85;100.00
21779;BME280;11050;52.222;20.916;2023-07-13T00:07:56;99697.06;;;19.86;100.00
21779;BME280;11050;52.222;20.916;2023-07-13T00:10:22;99694.97;;;19.83;100.00
21779;BME280;11050;52.222;20.916;2023-07-13T00:12:48;99684.13;;;19.81;100.00
21779;BME280;11050;52.222;20.916;2023-07-13T00:15:21;99681.50;;;19.85;100.00
21779;BME280;11050;52.222;20.916;2023-07-13T00:17:53;99687.88;;;19.85;100.00
21779;BME280;11050;52.222;20.916;2023-07-13T00:20:21;99676.72;;;19.85;100.00
21779;BME280;11050;52.222;20.916;2023-07-13T00:22:51;99675.94;;;19.85;100.00
21779;BME280;11050;52.222;20.916;2023-07-13T00:25:20;99681.50;;;19.85;100.00
21779;BME280;11050;52.222;20.916;2023-07-13T00:27:48;99680.84;;;19.88;100.00
21779;BME280;11050;52.222;20.916;2023-07-13T00:30:17;99689.53;;;19.87;100.00
21779;BME280;11050;52.222;20.916;2023-07-13T00:32:43;99691.34;;;19.82;100.00
21779;BME280;11050;52.222;20.916;2023-07-13T00:35:10;99699.88;;;19.86;100.00
21779;BME280;11050;52.222;20.916;2023-07-13T00:37:35;99687.09;;;19.85;100.00
21779;BME280;11050;52.222;20.916;2023-07-13T00:40:05;99686.25;;;19.84;100.00
21779;BME280;11050;52.222;20.916;2023-07-13T00:42:31;99682.31;;;19.85;100.00
21779;BME280;11050;52.222;20.916;2023-07-13T00:47:43;99672.16;;;19.81;100.00
21779;BME280;11050;52.222;20.916;2023-07-13T00:50:14;99670.50;;;19.80;100.00
21779;BME280;11050;52.222;20.916;2023-07-13T00:52:46;99680.53;;;19.81;100.00
21779;BME280;11050;52.222;20.916;2023-07-13T00:55:15;99678.72;;;19.85;100.00
21779;BME280;11050;52.222;20.916;2023-07-13T00:57:43;99672.47;;;19.88;100.00
21779;BME280;11050;52.222;20.916;2023-07-13T01:00:10;99663.13;;;19.93;100.00
21779;BME280;11050;52.222;20.916;2023-07-13T01:02:45;99671.63;;;19.96;100.00
21779;BME280;11050;52.222;20.916;2023-07-13T01:05:16;99679.81;;;20.01;100.00
21779;BME280;11050;52.222;20.916;2023-07-13T01:07:44;99681.47;;;20.02;100.00
21779;BME280;11050;52.222;20.916;2023-07-13T01:10:12;99684.28;;;20.02;100.00
21779;BME280;11050;52.222;20.916;2023-07-13T01:12:38;99689.34;;;20.00;100.00
21779;BME280;11050;52.222;20.916;2023-07-13T01:15:05;99685.41;;;20.01;100.00
21779;BME280;11050;52.222;20.916;2023-07-13T01:17:33;99688.69;;;20.03;100.00
21779;BME280;11050;52.222;20.916;2023-07-13T01:19:59;99688.19;;;20.01;100.00
21779;BME280;11050;52.222;20.916;2023-07-13T01:22:26;99691.47;;;20.03;100.00
21779;BME280;11050;52.222;20.916;2023-07-13T01:24:54;99682.13;;;19.99;100.00
21779;BME280;11050;52.222;20.916;2023-07-13T01:27:25;99684.09;;;19.99;100.00
21779;BME280;11050;52.222;20.916;2023-07-13T01:29:52;99685.25;;;19.98;100.00
21779;BME280;11050;52.222;20.916;2023-07-13T01:32:23;99698.38;;;19.97;100.00
21779;BME280;11050;52.222;20.916;2023-07-13T01:34:53;99693.94;;;19.96;100.00
21779;BME280;11050;52.222;20.916;2023-07-13T01:37:20;99708.53;;;19.93;100.00
21779;BME280;11050;52.222;20.916;2023-07-13T01:39:46;99704.63;;;19.94;100.00
21779;BME280;11050;52.222;20.916;2023-07-13T01:42:13;99717.75;;;19.94;100.00
21779;BME280;11050;52.222;20.916;2023-07-13T01:44:39;99702.16;;;19.93;100.00
21779;BME280;11050;52.222;20.916;2023-07-13T01:47:05;99709.22;;;19.90;100.00
21779;BME280;11050;52.222;20.916;2023-07-13T01:49:31;99713.31;;;19.93;100.00
21779;BME280;11050;52.222;20.916;2023-07-13T01:51:57;99711.19;;;19.90;100.00
21779;BME280;11050;52.222;20.916;2023-07-13T01:54:23;99710.69;;;19.79;100.00
21779;BME280;11050;52.222;20.916;2023-07-13T01:56:49;99718.25;;;19.78;100.00
21779;BME280;11050;52.222;20.916;2023-07-13T01:59:14;99717.91;;;19.80;100.00
21779;BME280;11050;52.222;20.916;2023-07-13T02:01:40;99714.47;;;19.83;100.00
21779;BME280;11050;52.222;20.916;2023-07-13T02:04:06;99713.31;;;19.84;100.00
21779;BME280;11050;52.222;20.916;2023-07-13T02:06:32;99718.41;;;19.82;100.00
21779;BME280;11050;52.222;20.916;2023-07-13T02:08:58;99716.78;;;19.81;100.00
21779;BME280;11050;52.222;20.916;2023-07-13T02:11:24;99723.81;;;19.78;100.00
21779;BME280;11050;52.222;20.916;2023-07-13T02:13:51;99724.31;;;19.80;100.00
21779;BME280;11050;52.222;20.916;2023-07-13T02:16:17;99735.13;;;19.82;100.00
21779;BME280;11050;52.222;20.916;2023-07-13T02:18:43;99725.13;;;19.81;100.00
21779;BME280;11050;52.222;20.916;2023-07-13T02:21:08;99727.78;;;19.77;100.00
21779;BME280;11050;52.222;20.916;2023-07-13T02:23:34;99721.84;;;19.79;100.00
21779;BME280;11050;52.222;20.916;2023-07-13T02:26:03;99718.72;;;19.80;100.00
21779;BME280;11050;52.222;20.916;2023-07-13T02:28:29;99725.97;;;19.81;100.00
21779;BME280;11050;52.222;20.916;2023-07-13T02:30:54;99729.88;;;19.80;100.00
21779;BME280;11050;52.222;20.916;2023-07-13T02:33:20;99727.28;;;19.75;100.00
21779;BME280;11050;52.222;20.916;2023-07-13T02:35:46;99726.28;;;19.71;100.00
21779;BME280;11050;52.222;20.916;2023-07-13T02:38:11;99729.72;;;19.77;100.00
21779;BME280;11050;52.222;20.916;2023-07-13T02:40:37;99729.72;;;19.77;100.00
21779;BME280;11050;52.222;20.916;2023-07-13T02:43:03;99733.00;;;19.79;100.00
21779;BME280;11050;52.222;20.916;2023-07-13T02:45:29;99728.91;;;19.85;100.00
21779;BME280;11050;52.222;20.916;2023-07-13T02:47:55;99723.16;;;19.90;100.00
21779;BME280;11050;52.222;20.916;2023-07-13T02:50:20;99726.44;;;19.92;100.00
21779;BME280;11050;52.222;20.916;2023-07-13T02:52:46;99720.88;;;19.92;100.00
21779;BME280;11050;52.222;20.916;2023-07-13T02:55:12;99718.25;;;19.87;100.00
21779;BME280;11050;52.222;20.916;2023-07-13T02:57:38;99714.97;;;19.85;100.00
21779;BME280;11050;52.222;20.916;2023-07-13T03:00:05;99722.19;;;19.86;100.00
21779;BME280;11050;52.222;20.916;2023-07-13T03:02:32;99721.03;;;19.87;100.00
21779;BME280;11050;52.222;20.916;2023-07-13T03:04:58;99713.81;;;19.86;100.00
21779;BME280;11050;52.222;20.916;2023-07-13T03:07:24;99714.31;;;19.88;100.00
21779;BME280;11050;52.222;20.916;2023-07-13T03:09:55;99720.56;;;19.85;100.00
21779;BME280;11050;52.222;20.916;2023-07-13T03:12:22;99723.47;;;19.80;100.00
21779;BME280;11050;52.222;20.916;2023-07-13T03:14:48;99726.28;;;19.71;100.00
21779;BME280;11050;52.222;20.916;2023-07-13T03:17:14;99718.41;;;19.65;100.00
21779;BME280;11050;52.222;20.916;2023-07-13T03:19:39;99726.59;;;19.61;100.00
21779;BME280;11050;52.222;20.916;2023-07-13T03:22:05;99716.28;;;19.62;100.00
21779;BME280;11050;52.222;20.916;2023-07-13T03:24:34;99714.97;;;19.59;100.00
21779;BME280;11050;52.222;20.916;2023-07-13T03:27:04;99718.56;;;19.60;100.00
21779;BME280;11050;52.222;20.916;2023-07-13T03:29:29;99712.03;;;19.64;100.00
21779;BME280;11050;52.222;20.916;2023-07-13T03:31:55;99697.75;;;19.66;100.00
21779;BME280;11050;52.222;20.916;2023-07-13T03:34:21;99708.09;;;19.74;100.00
21779;BME280;11050;52.222;20.916;2023-07-13T03:36:46;99702.66;;;19.77;100.00
21779;BME280;11050;52.222;20.916;2023-07-13T03:39:12;99696.94;;;19.74;100.00
21779;BME280;11050;52.222;20.916;2023-07-13T03:41:38;99702.66;;;19.77;100.00
21779;BME280;11050;52.222;20.916;2023-07-13T03:44:04;99691.50;;;19.86;100.00
21779;BME280;11050;52.222;20.916;2023-07-13T03:46:30;99696.25;;;19.94;100.00
21779;BME280;11050;52.222;20.916;2023-07-13T03:48:57;99699.00;;;20.03;100.00
21779;BME280;11050;52.222;20.916;2023-07-13T03:51:22;99701.31;;;20.09;100.00
21779;BME280;11050;52.222;20.916;2023-07-13T03:53:48;99701.97;;;20.15;100.00
21779;BME280;11050;52.222;20.916;2023-07-13T03:56:16;99703.78;;;20.19;100.00
21779;BME280;11050;52.222;20.916;2023-07-13T03:58:46;99707.53;;;20.23;100.00
21779;BME280;11050;52.222;20.916;2023-07-13T04:01:13;99702.94;;;20.27;100.00
21779;BME280;11050;52.222;20.916;2023-07-13T04:03:39;99700.13;;;20.27;100.00
21779;BME280;11050;52.222;20.916;2023-07-13T04:06:07;99707.50;;;20.40;100.00
21779;BME280;11050;52.222;20.916;2023-07-13T04:08:36;99703.66;;;20.53;100.00
21779;BME280;11050;52.222;20.916;2023-07-13T04:11:04;99711.66;;;20.72;100.00
21779;BME280;11050;52.222;20.916;2023-07-13T04:13:30;99717.16;;;20.89;100.00
21779;BME280;11050;52.222;20.916;2023-07-13T04:15:56;99726.91;;;21.12;100.00
21779;BME280;11050;52.222;20.916;2023-07-13T04:18:22;99730.91;;;21.32;100.00
21779;BME280;11050;52.222;20.916;2023-07-13T04:20:49;99737.84;;;21.55;100.00
21779;BME280;11050;52.222;20.916;2023-07-13T04:23:19;99734.22;;;21.75;100.00
21779;BME280;11050;52.222;20.916;2023-07-13T04:25:47;99740.53;;;21.93;100.00
21779;BME280;11050;52.222;20.916;2023-07-13T04:28:15;99748.13;;;22.04;100.00
21779;BME280;11050;52.222;20.916;2023-07-13T04:30:43;99758.69;;;22.19;100.00
21779;BME280;11050;52.222;20.916;2023-07-13T04:33:09;99761.19;;;22.33;100.00
21779;BME280;11050;52.222;20.916;2023-07-13T04:35:35;99754.47;;;22.46;100.00
21779;BME280;11050;52.222;20.916;2023-07-13T04:38:01;99756.53;;;22.57;100.00
21779;BME280;11050;52.222;20.916;2023-07-13T04:40:28;99761.34;;;22.69;100.00
21779;BME280;11050;52.222;20.916;2023-07-13T04:42:55;99761.25;;;22.78;100.00
21779;BME280;11050;52.222;20.916;2023-07-13T04:45:20;99765.91;;;22.86;100.00
21779;BME280;11050;52.222;20.916;2023-07-13T04:47:46;99763.22;;;22.89;100.00
21779;BME280;11050;52.222;20.916;2023-07-13T04:50:13;99760.69;;;22.96;100.00
21779;BME280;11050;52.222;20.916;2023-07-13T04:52:46;99763.25;;;23.01;100.00
21779;BME280;11050;52.222;20.916;2023-07-13T04:55:13;99764.66;;;23.07;100.00
21779;BME280;11050;52.222;20.916;2023-07-13T04:57:39;99767.34;;;23.16;100.00
21779;BME280;11050;52.222;20.916;2023-07-13T05:00:07;99755.19;;;23.24;100.00
21779;BME280;11050;52.222;20.916;2023-07-13T05:02:33;99762.44;;;23.37;100.00
21779;BME280;11050;52.222;20.916;2023-07-13T05:05:00;99775.19;;;23.46;100.00
21779;BME280;11050;52.222;20.916;2023-07-13T05:07:26;99775.03;;;23.55;100.00
21779;BME280;11050;52.222;20.916;2023-07-13T05:09:52;99784.06;;;23.61;100.00
21779;BME280;11050;52.222;20.916;2023-07-13T05:12:18;99785.09;;;23.68;100.00
21779;BME280;11050;52.222;20.916;2023-07-13T05:14:44;99786.25;;;23.79;100.00
21779;BME280;11050;52.222;20.916;2023-07-13T05:17:10;99788.09;;;23.87;100.00
21779;BME280;11050;52.222;20.916;2023-07-13T05:19:36;99792.06;;;23.98;100.00
21779;BME280;11050;52.222;20.916;2023-07-13T05:22:02;99798.84;;;24.09;100.00
21779;BME280;11050;52.222;20.916;2023-07-13T05:24:28;99809.22;;;24.21;100.00
21779;BME280;11050;52.222;20.916;2023-07-13T05:26:54;99819.00;;;24.27;100.00
21779;BME280;11050;52.222;20.916;2023-07-13T05:29:21;99824.03;;;24.33;100.00
21779;BME280;11050;52.222;20.916;2023-07-13T05:31:48;99825.75;;;24.38;100.00
21779;BME280;11050;52.222;20.916;2023-07-13T05:34:14;99825.88;;;24.41;100.00
21779;BME280;11050;52.222;20.916;2023-07-13T05:36:40;99827.22;;;24.48;100.00
21779;BME280;11050;52.222;20.916;2023-07-13T05:39:06;99829.53;;;24.58;100.00
21779;BME280;11050;52.222;20.916;2023-07-13T05:41:32;99833.44;;;24.69;100.00
21779;BME280;11050;52.222;20.916;2023-07-13T05:43:57;99836.69;;;24.83;99.20
21779;BME280;11050;52.222;20.916;2023-07-13T05:46:23;99834.53;;;24.92;98.96
21779;BME280;11050;52.222;20.916;2023-07-13T05:48:49;99834.00;;;25.02;96.89
21779;BME280;11050;52.222;20.916;2023-07-13T05:51:14;99841.72;;;25.05;97.33
21779;BME280;11050;52.222;20.916;2023-07-13T05:53:40;99833.09;;;25.13;97.44
21779;BME280;11050;52.222;20.916;2023-07-13T05:56:06;99834.91;;;25.21;96.78
21779;BME280;11050;52.222;20.916;2023-07-13T05:58:31;99817.97;;;25.33;95.68
21779;BME280;11050;52.222;20.916;2023-07-13T06:01:11;99818.53;;;25.55;94.31
21779;BME280;11050;52.222;20.916;2023-07-13T06:03:37;99811.84;;;25.63;93.79
21779;BME280;11050;52.222;20.916;2023-07-13T06:06:06;99811.38;;;25.76;92.78
21779;BME280;11050;52.222;20.916;2023-07-13T06:08:32;99817.63;;;25.85;92.05
21779;BME280;11050;52.222;20.916;2023-07-13T06:11:10;99815.44;;;25.94;90.39
21779;BME280;11050;52.222;20.916;2023-07-13T06:13:37;99817.59;;;26.01;89.50
21779;BME280;11050;52.222;20.916;2023-07-13T06:16:04;99828.84;;;26.01;89.20
21779;BME280;11050;52.222;20.916;2023-07-13T06:18:31;99830.50;;;26.02;89.25
21779;BME280;11050;52.222;20.916;2023-07-13T06:20:57;99820.69;;;25.96;88.92
21779;BME280;11050;52.222;20.916;2023-07-13T06:23:24;99824.88;;;26.02;88.62
21779;BME280;11050;52.222;20.916;2023-07-13T06:25:50;99818.97;;;26.07;88.22
21779;BME280;11050;52.222;20.916;2023-07-13T06:28:16;99810.72;;;26.17;87.58
21779;BME280;11050;52.222;20.916;2023-07-13T06:30:42;99820.22;;;26.28;85.90
21779;BME280;11050;52.222;20.916;2023-07-13T06:33:07;99824.44;;;26.38;84.32
21779;BME280;11050;52.222;20.916;2023-07-13T06:35:33;99823.34;;;26.43;84.07
21779;BME280;11050;52.222;20.916;2023-07-13T06:37:59;99826.81;;;26.55;83.17
21779;BME280;11050;52.222;20.916;2023-07-13T06:40:25;99820.38;;;26.55;82.19
21779;BME280;11050;52.222;20.916;2023-07-13T06:42:50;99822.59;;;26.65;80.43
21779;BME280;11050;52.222;20.916;2023-07-13T06:45:16;99810.69;;;26.71;79.14
21779;BME280;11050;52.222;20.916;2023-07-13T06:47:42;99804.13;;;26.67;71.63
21779;BME280;11050;52.222;20.916;2023-07-13T06:50:08;99811.13;;;26.73;71.85
21779;BME280;11050;52.222;20.916;2023-07-13T06:52:34;99810.81;;;26.78;70.36
21779;BME280;11050;52.222;20.916;2023-07-13T06:54:59;99816.56;;;26.85;70.05
21779;BME280;11050;52.222;20.916;2023-07-13T06:57:25;99812.72;;;26.93;68.12
21779;BME280;11050;52.222;20.916;2023-07-13T06:59:51;99813.41;;;27.09;68.13
21779;BME280;11050;52.222;20.916;2023-07-13T07:02:17;99803.47;;;27.19;63.44
21779;BME280;11050;52.222;20.916;2023-07-13T07:04:43;99798.72;;;27.23;59.18
21779;BME280;11050;52.222;20.916;2023-07-13T07:07:08;99803.91;;;27.21;56.55
21779;BME280;11050;52.222;20.916;2023-07-13T07:09:34;99801.34;;;27.32;56.46
21779;BME280;11050;52.222;20.916;2023-07-13T07:12:00;99811.28;;;27.48;55.72
21779;BME280;11050;52.222;20.916;2023-07-13T07:14:25;99808.25;;;27.60;55.41
21779;BME280;11050;52.222;20.916;2023-07-13T07:16:51;99802.72;;;27.67;56.06
21779;BME280;11050;52.222;20.916;2023-07-13T07:19:17;99814.59;;;27.80;55.22
21779;BME280;11050;52.222;20.916;2023-07-13T07:21:42;99803.56;;;27.94;53.95
21779;BME280;11050;52.222;20.916;2023-07-13T07:24:08;99804.13;;;28.06;51.04
21779;BME280;11050;52.222;20.916;2023-07-13T07:26:34;99812.72;;;28.17;51.84
21779;BME280;11050;52.222;20.916;2023-07-13T07:29:00;99815.72;;;28.28;53.11
21779;BME280;11050;52.222;20.916;2023-07-13T07:31:26;99825.84;;;28.32;52.38
21779;BME280;11050;52.222;20.916;2023-07-13T07:33:51;99817.44;;;28.36;52.83
21779;BME280;11050;52.222;20.916;2023-07-13T07:36:17;99816.47;;;28.25;50.88
21779;BME280;11050;52.222;20.916;2023-07-13T07:38:43;99814.41;;;28.22;50.63
21779;BME280;11050;52.222;20.916;2023-07-13T07:41:09;99815.56;;;28.17;49.76
21779;BME280;11050;52.222;20.916;2023-07-13T07:43:36;99815.56;;;28.17;49.47
21779;BME280;11050;52.222;20.916;2023-07-13T07:46:03;99814.84;;;28.24;49.73
21779;BME280;11050;52.222;20.916;2023-07-13T07:48:29;99815.38;;;28.33;48.20
21779;BME280;11050;52.222;20.916;2023-07-13T07:50:54;99814.00;;;28.20;49.04
21779;BME280;11050;52.222;20.916;2023-07-13T07:53:20;99816.72;;;28.13;50.30
21779;BME280;11050;52.222;20.916;2023-07-13T07:55:46;99824.59;;;28.26;49.44
21779;BME280;11050;52.222;20.916;2023-07-13T07:58:13;99816.91;;;28.27;49.83
21779;BME280;11050;52.222;20.916;2023-07-13T08:00:38;99827.16;;;28.38;49.69
21779;BME280;11050;52.222;20.916;2023-07-13T08:03:04;99827.63;;;28.44;48.35
21779;BME280;11050;52.222;20.916;2023-07-13T08:05:30;99825.06;;;28.32;46.31
21779;BME280;11050;52.222;20.916;2023-07-13T08:07:55;99821.41;;;28.31;47.31
21779;BME280;11050;52.222;20.916;2023-07-13T08:10:21;99821.47;;;28.35;47.30
21779;BME280;11050;52.222;20.916;2023-07-13T08:12:47;99816.31;;;28.44;47.16
21779;BME280;11050;52.222;20.916;2023-07-13T08:15:16;99817.59;;;28.50;48.48
21779;BME280;11050;52.222;20.916;2023-07-13T08:17:42;99829.19;;;28.67;49.71
21779;BME280;11050;52.222;20.916;2023-07-13T08:20:08;99825.84;;;28.95;48.93
21779;BME280;11050;52.222;20.916;2023-07-13T08:22:35;99820.66;;;29.04;48.21
21779;BME280;11050;52.222;20.916;2023-07-13T08:25:01;99825.09;;;29.02;45.27
21779;BME280;11050;52.222;20.916;2023-07-13T08:27:28;99823.78;;;28.92;45.72
21779;BME280;11050;52.222;20.916;2023-07-13T08:29:54;99827.13;;;29.01;46.72
21779;BME280;11050;52.222;20.916;2023-07-13T08:32:22;99827.91;;;29.38;47.57
21779;BME280;11050;52.222;20.916;2023-07-13T08:34:48;99829.88;;;29.78;44.77
21779;BME280;11050;52.222;20.916;2023-07-13T08:37:14;99827.25;;;30.10;45.82
21779;BME280;11050;52.222;20.916;2023-07-13T08:39:41;99837.59;;;30.46;45.30
21779;BME280;11050;52.222;20.916;2023-07-13T08:44:51;99828.41;;;30.77;43.03
21779;BME280;11050;52.222;20.916;2023-07-13T08:47:23;99844.59;;;30.76;42.67
21779;BME280;11050;52.222;20.916;2023-07-13T08:49:51;99839.66;;;30.49;42.32
21779;BME280;11050;52.222;20.916;2023-07-13T08:52:38;99838.09;;;30.65;43.01
21779;BME280;11050;52.222;20.916;2023-07-13T08:55:36;99845.97;;;31.11;43.47
21779;BME280;11050;52.222;20.916;2023-07-13T08:58:14;99850.50;;;31.57;41.51
21779;BME280;11050;52.222;20.916;2023-07-13T09:01:14;99852.91;;;31.84;39.35
21779;BME280;11050;52.222;20.916;2023-07-13T09:04:09;99853.31;;;32.07;38.96
21779;BME280;11050;52.222;20.916;2023-07-13T09:06:59;99849.25;;;32.15;38.70
21779;BME280;11050;52.222;20.916;2023-07-13T09:15:31;99848.38;;;32.25;39.45
21779;BME280;11050;52.222;20.916;2023-07-13T09:18:11;99851.59;;;32.48;40.10
21779;BME280;11050;52.222;20.916;2023-07-13T09:20:52;99836.94;;;32.56;38.29
21779;BME280;11050;52.222;20.916;2023-07-13T09:23:24;99834.09;;;32.60;37.77
21779;BME280;11050;52.222;20.916;2023-07-13T09:26:02;99832.50;;;32.52;39.84
21779;BME280;11050;52.222;20.916;2023-07-13T09:28:38;99828.06;;;32.26;38.65
21779;BME280;11050;52.222;20.916;2023-07-13T09:31:52;99826.50;;;32.08;38.65
21779;BME280;11050;52.222;20.916;2023-07-13T09:33:51;99830.56;;;31.86;39.93
21779;BME280;11050;52.222;20.916;2023-07-13T09:36:33;99824.47;;;31.87;39.33
21779;BME280;11050;52.222;20.916;2023-07-13T09:39:14;99833.84;;;31.81;40.11
21779;BME280;11050;52.222;20.916;2023-07-13T09:44:16;99824.50;;;31.91;40.34
21779;BME280;11050;52.222;20.916;2023-07-13T09:46:54;99822.88;;;31.72;40.91
21779;BME280;11050;52.222;20.916;2023-07-13T09:49:43;99819.22;;;31.43;41.04
21779;BME280;11050;52.222;20.916;2023-07-13T09:52:15;99818.38;;;31.22;41.69
21779;BME280;11050;52.222;20.916;2023-07-13T09:54:50;99816.31;;;31.08;42.14
21779;BME280;11050;52.222;20.916;2023-07-13T09:57:19;99817.16;;;31.02;42.35
21779;BME280;11050;52.222;20.916;2023-07-13T09:59:51;99804.09;;;30.83;42.76
21779;BME280;11050;52.222;20.916;2023-07-13T10:02:31;99802.06;;;30.80;42.83
21779;BME280;11050;52.222;20.916;2023-07-13T10:05:10;99785.38;;;30.68;43.42
21779;BME280;11050;52.222;20.916;2023-07-13T10:07:43;99800.31;;;30.51;43.02
21779;BME280;11050;52.222;20.916;2023-07-13T10:10:21;99786.38;;;30.14;43.54
21779;BME280;11050;52.222;20.916;2023-07-13T10:12:49;99786.97;;;29.79;44.43
21779;BME280;11050;52.222;20.916;2023-07-13T10:15:23;99783.00;;;29.37;45.44
21779;BME280;11050;52.222;20.916;2023-07-13T10:17:53;99784.97;;;28.92;46.66
21779;BME280;11050;52.222;20.916;2023-07-13T10:20:21;99775.19;;;28.50;48.57
21779;BME280;11050;52.222;20.916;2023-07-13T10:23:13;99784.69;;;28.01;52.04
21779;BME280;11050;52.222;20.916;2023-07-13T10:25:44;99796.59;;;27.62;53.89
21779;BME280;11050;52.222;20.916;2023-07-13T10:28:35;99792.19;;;27.19;56.93
21779;BME280;11050;52.222;20.916;2023-07-13T10:31:05;99795.38;;;26.72;62.29
21779;BME280;11050;52.222;20.916;2023-07-13T10:33:35;99786.97;;;26.34;65.34
21779;BME280;11050;52.222;20.916;2023-07-13T10:36:23;99790.28;;;25.86;68.40
21779;BME280;11050;52.222;20.916;2023-07-13T10:38:55;99815.41;;;25.28;75.38
21779;BME280;11050;52.222;20.916;2023-07-13T10:41:25;99838.50;;;24.75;81.96
21779;BME280;11050;52.222;20.916;2023-07-13T10:43:55;99845.63;;;24.05;90.90
21779;BME280;11050;52.222;20.916;2023-07-13T10:46:26;99862.59;;;23.36;96.06
21779;BME280;11050;52.222;20.916;2023-07-13T10:49:02;99858.13;;;22.79;100.00
21779;BME280;11050;52.222;20.916;2023-07-13T10:51:31;99846.44;;;22.23;100.00
21779;BME280;11050;52.222;20.916;2023-07-13T10:54:21;99840.72;;;21.70;100.00
21779;BME280;11050;52.222;20.916;2023-07-13T10:56:53;99851.13;;;21.32;100.00
21779;BME280;11050;52.222;20.916;2023-07-13T10:59:32;99854.69;;;20.95;100.00
21779;BME280;11050;52.222;20.916;2023-07-13T11:04:48;99863.13;;;20.52;100.00
21779;BME280;11050;52.222;20.916;2023-07-13T11:07:25;99860.22;;;20.40;100.00
21779;BME280;11050;52.222;20.916;2023-07-13T11:09:58;99866.09;;;20.38;100.00
21779;BME280;11050;52.222;20.916;2023-07-13T11:17:50;99875.13;;;20.52;100.00
21779;BME280;11050;52.222;20.916;2023-07-13T11:20:33;99872.31;;;20.61;100.00
21779;BME280;11050;52.222;20.916;2023-07-13T11:23:26;99870.22;;;20.66;100.00
21779;BME280;11050;52.222;20.916;2023-07-13T11:25:53;99866.59;;;20.66;100.00
21779;BME280;11050;52.222;20.916;2023-07-13T11:28:25;99862.63;;;20.67;100.00
21779;BME280;11050;52.222;20.916;2023-07-13T11:36:21;99911.09;;;20.62;100.00
21779;BME280;11050;52.222;20.916;2023-07-13T11:38:59;99921.28;;;20.41;100.00
21779;BME280;11050;52.222;20.916;2023-07-13T11:41:45;99920.72;;;20.14;100.00
21779;BME280;11050;52.222;20.916;2023-07-13T11:44:19;99922.69;;;20.05;100.00
21779;BME280;11050;52.222;20.916;2023-07-13T11:46:52;99908.41;;;19.98;100.00
21779;BME280;11050;52.222;20.916;2023-07-13T11:49:24;99917.28;;;20.00;100.00
21779;BME280;11050;52.222;20.916;2023-07-13T11:51:51;99915.31;;;20.00;100.00
21779;BME280;11050;52.222;20.916;2023-07-13T11:54:34;99919.22;;;19.99;100.00
21779;BME280;11050;52.222;20.916;2023-07-13T11:57:29;99928.94;;;20.10;100.00
21779;BME280;11050;52.222;20.916;2023-07-13T11:59:58;99924.53;;;20.18;100.00
21779;BME280;11050;52.222;20.916;2023-07-13T12:02:37;99928.47;;;20.17;100.00
21779;BME280;11050;52.222;20.916;2023-07-13T12:05:05;99918.16;;;20.26;100.00
21779;BME280;11050;52.222;20.916;2023-07-13T12:07:33;99912.41;;;20.31;100.00
21779;BME280;11050;52.222;20.916;2023-07-13T12:10:21;99903.88;;;20.44;100.00
21779;BME280;11050;52.222;20.916;2023-07-13T12:13:08;99899.44;;;20.60;100.00
21779;BME280;11050;52.222;20.916;2023-07-13T12:15:44;99897.47;;;20.69;100.00
21779;BME280;11050;52.222;20.916;2023-07-13T12:18:18;99900.06;;;20.83;100.00
21779;BME280;11050;52.222;20.916;2023-07-13T12:20:46;99892.97;;;20.86;100.00
21779;BME280;11050;52.222;20.916;2023-07-13T12:23:34;99897.75;;;20.94;100.00
21779;BME280;11050;52.222;20.916;2023-07-13T12:26:05;99892.63;;;20.96;100.00
21779;BME280;11050;52.222;20.916;2023-07-13T12:28:45;99903.97;;;20.99;100.00
21779;BME280;11050;52.222;20.916;2023-07-13T12:31:36;99889.16;;;20.99;100.00
21779;BME280;11050;52.222;20.916;2023-07-13T12:34:15;99887.06;;;20.96;100.00
21779;BME280;11050;52.222;20.916;2023-07-13T12:36:55;99890.03;;;20.91;100.00
21779;BME280;11050;52.222;20.916;2023-07-13T12:39:35;99886.44;;;20.82;100.00
21779;BME280;11050;52.222;20.916;2023-07-13T12:42:28;99874.59;;;20.76;100.00
21779;BME280;11050;52.222;20.916;2023-07-13T12:45:17;99877.91;;;20.69;100.00
21779;BME280;11050;52.222;20.916;2023-07-13T12:47:48;99880.03;;;20.72;100.00
21779;BME280;11050;52.222;20.916;2023-07-13T12:50:19;99886.44;;;20.82;100.00
21779;BME280;11050;52.222;20.916;2023-07-13T12:52:54;99874.06;;;20.91;100.00
21779;BME280;11050;52.222;20.916;2023-07-13T12:55:22;99872.13;;;21.00;100.00
21779;BME280;11050;52.222;20.916;2023-07-13T12:57:54;99867.47;;;21.13;100.00
21779;BME280;11050;52.222;20.916;2023-07-13T13:00:32;99870.72;;;21.23;100.00
21779;BME280;11050;52.222;20.916;2023-07-13T13:03:07;99876.72;;;21.42;100.00
21779;BME280;11050;52.222;20.916;2023-07-13T13:05:37;99869.22;;;21.63;100.00
21779;BME280;11050;52.222;20.916;2023-07-13T13:08:03;99870.78;;;21.82;100.00
21779;BME280;11050;52.222;20.916;2023-07-13T13:10:29;99880.25;;;21.89;100.00
21779;BME280;11050;52.222;20.916;2023-07-13T13:12:55;99875.50;;;21.90;100.00
21779;BME280;11050;52.222;20.916;2023-07-13T13:15:21;99890.81;;;21.92;100.00
21779;BME280;11050;52.222;20.916;2023-07-13T13:17:47;99880.09;;;21.94;100.00
21779;BME280;11050;52.222;20.916;2023-07-13T13:20:21;99880.84;;;22.03;100.00
21779;BME280;11050;52.222;20.916;2023-07-13T13:22:47;99887.06;;;22.09;100.00